createdAt,value
2018-07-25T00:00:09.348Z,9.13
2018-07-25T00:02:37.959Z,9.43
2018-07-25T00:05:07.138Z,8.13
2018-07-25T00:07:36.156Z,9.00
2018-07-25T00:10:04.776Z,9.20
2018-07-25T00:12:33.374Z,8.53
2018-07-25T00:15:01.917Z,9.37
2018-07-25T00:17:30.499Z,8.77
2018-07-25T00:19:59.037Z,8.97
2018-07-25T00:22:27.613Z,9.00
2018-07-25T00:24:56.102Z,9.67
2018-07-25T00:27:24.696Z,9.37
2018-07-25T00:29:53.235Z,9.20
2018-07-25T00:32:21.818Z,9.90
2018-07-25T00:34:50.551Z,10.00
2018-07-25T00:37:19.232Z,9.20
2018-07-25T00:39:47.852Z,9.30
2018-07-25T00:42:16.406Z,9.60
2018-07-25T00:44:45.082Z,10.10
2018-07-25T00:47:13.782Z,9.47
2018-07-25T00:49:41.980Z,9.70
2018-07-25T00:52:10.577Z,9.70
2018-07-25T00:54:45.917Z,10.40
2018-07-25T00:57:14.113Z,9.10
2018-07-25T00:59:42.660Z,9.83
2018-07-25T01:02:11.198Z,10.13
2018-07-25T01:04:39.781Z,9.73
2018-07-25T01:07:08.378Z,10.00
2018-07-25T01:09:36.981Z,11.30
2018-07-25T01:12:05.533Z,10.07
2018-07-25T01:14:34.297Z,10.67
2018-07-25T01:17:03.047Z,10.17
2018-07-25T01:19:31.666Z,10.10
2018-07-25T01:22:00.313Z,9.60
2018-07-25T01:24:28.978Z,10.77
2018-07-25T01:26:57.217Z,10.97
2018-07-25T01:29:25.753Z,10.87
2018-07-25T01:31:54.333Z,11.53
2018-07-25T01:34:22.893Z,10.20
2018-07-25T01:36:51.545Z,10.03
2018-07-25T01:39:20.107Z,11.10
2018-07-25T01:41:48.689Z,10.00
2018-07-25T01:44:17.327Z,10.97
2018-07-25T01:46:45.878Z,10.33
2018-07-25T01:49:14.473Z,10.10
2018-07-25T01:51:43.013Z,10.93
2018-07-25T01:54:11.556Z,9.70
2018-07-25T01:56:40.154Z,9.63
2018-07-25T01:59:08.689Z,10.40
2018-07-25T02:01:37.331Z,10.73
2018-07-25T02:04:06.006Z,10.20
2018-07-25T02:06:34.567Z,10.57
2018-07-25T02:09:03.488Z,10.90
2018-07-25T02:11:32.102Z,10.30
2018-07-25T02:14:00.665Z,10.83
2018-07-25T02:16:29.220Z,10.77
2018-07-25T02:18:57.889Z,10.63
2018-07-25T02:21:26.427Z,10.00
2018-07-25T02:23:55.015Z,10.53
2018-07-25T02:26:23.646Z,11.27
2018-07-25T02:28:52.197Z,11.00
2018-07-25T02:31:20.829Z,10.77
2018-07-25T02:33:54.577Z,11.00
2018-07-25T02:36:23.166Z,11.17
2018-07-25T02:38:51.724Z,10.90
2018-07-25T02:41:20.454Z,11.63
2018-07-25T02:43:49.088Z,12.13
2018-07-25T02:46:18.016Z,12.00
2018-07-25T02:48:46.614Z,12.30
2018-07-25T02:51:15.204Z,11.57
2018-07-25T02:53:43.855Z,11.20
2018-07-25T02:56:12.386Z,11.83
2018-07-25T02:58:40.943Z,12.33
2018-07-25T03:01:09.551Z,11.37
2018-07-25T03:03:38.081Z,12.17
2018-07-25T03:06:06.634Z,11.13
2018-07-25T03:08:35.219Z,11.40
2018-07-25T03:11:03.790Z,11.10
2018-07-25T03:13:32.322Z,12.43
2018-07-25T03:16:05.362Z,13.47
2018-07-25T03:18:33.967Z,12.30
2018-07-25T03:21:02.730Z,11.90
2018-07-25T03:23:32.918Z,12.57
2018-07-25T03:26:01.478Z,13.50
2018-07-25T03:28:30.386Z,14.50
2018-07-25T03:30:59.596Z,13.07
2018-07-25T03:33:28.249Z,13.17
2018-07-25T03:35:57.946Z,13.20
2018-07-25T03:38:27.393Z,13.03
2018-07-25T03:40:56.087Z,14.50
2018-07-25T03:43:24.701Z,14.13
2018-07-25T03:45:53.533Z,13.27
2018-07-25T03:48:22.105Z,14.47
2018-07-25T03:50:50.686Z,13.20
2018-07-25T03:53:19.221Z,14.00
2018-07-25T03:55:47.944Z,14.23
2018-07-25T03:58:16.461Z,13.77
2018-07-25T04:00:45.086Z,13.23
2018-07-25T04:03:13.742Z,13.20
2018-07-25T04:05:42.346Z,14.30
2018-07-25T04:08:10.961Z,14.03
2018-07-25T04:10:42.262Z,13.23
2018-07-25T04:13:10.897Z,14.80
2018-07-25T04:15:39.457Z,14.33
2018-07-25T04:18:08.093Z,13.30
2018-07-25T04:20:36.707Z,13.80
2018-07-25T04:23:05.461Z,13.33
2018-07-25T04:25:34.045Z,14.10
2018-07-25T04:28:02.613Z,13.90
2018-07-25T04:30:31.261Z,14.30
2018-07-25T04:32:59.773Z,12.50
2018-07-25T04:35:28.297Z,13.73
2018-07-25T04:37:56.829Z,12.63
2018-07-25T04:40:25.457Z,14.13
2018-07-25T04:42:54.070Z,14.00
2018-07-25T04:45:22.677Z,14.50
2018-07-25T04:47:51.625Z,12.13
2018-07-25T04:50:20.178Z,12.67
2018-07-25T04:52:48.801Z,13.47
2018-07-25T04:55:17.369Z,12.10
2018-07-25T04:57:45.997Z,13.67
2018-07-25T05:00:14.597Z,13.67
2018-07-25T05:02:43.197Z,13.60
2018-07-25T05:05:11.718Z,12.70
2018-07-25T05:07:40.277Z,14.43
2018-07-25T05:10:08.827Z,13.53
2018-07-25T05:12:37.440Z,13.50
2018-07-25T05:15:06.796Z,13.80
2018-07-25T05:17:35.365Z,13.40
2018-07-25T05:20:04.185Z,13.23
2018-07-25T05:22:32.745Z,13.27
2018-07-25T05:25:01.325Z,12.20
2018-07-25T05:27:29.898Z,13.87
2018-07-25T05:29:58.431Z,14.00
2018-07-25T05:32:27.696Z,13.10
2018-07-25T05:34:56.253Z,12.77
2018-07-25T05:37:24.809Z,13.30
2018-07-25T05:39:53.393Z,13.30
2018-07-25T05:42:22.939Z,13.37
2018-07-25T05:44:51.485Z,12.87
2018-07-25T05:47:20.027Z,12.80
2018-07-25T05:49:48.576Z,13.53
2018-07-25T05:52:17.172Z,13.57
2018-07-25T05:54:45.700Z,13.00
2018-07-25T05:57:14.235Z,12.03
2018-07-25T05:59:42.793Z,11.10
2018-07-25T06:02:11.341Z,11.57
2018-07-25T06:04:39.957Z,10.80
2018-07-25T06:07:08.494Z,11.43
2018-07-25T06:09:37.040Z,10.17
2018-07-25T06:12:06.170Z,11.07
2018-07-25T06:14:34.777Z,11.63
2018-07-25T06:17:03.300Z,10.17
2018-07-25T06:19:31.886Z,11.40
2018-07-25T06:22:00.504Z,10.37
2018-07-25T06:24:29.100Z,12.00
2018-07-25T06:26:57.686Z,10.83
2018-07-25T06:29:26.274Z,12.80
2018-07-25T06:31:54.806Z,12.30
2018-07-25T06:34:23.314Z,12.60
2018-07-25T06:36:51.982Z,12.00
2018-07-25T06:39:20.546Z,14.13
2018-07-25T06:41:49.128Z,13.50
2018-07-25T06:44:17.682Z,13.60
2018-07-25T06:46:46.250Z,13.13
2018-07-25T06:49:14.785Z,12.30
2018-07-25T06:51:43.348Z,13.77
2018-07-25T06:54:11.960Z,14.47
2018-07-25T06:56:40.519Z,12.40
2018-07-25T06:59:09.005Z,14.07
2018-07-25T07:01:37.609Z,13.97
2018-07-25T07:04:06.205Z,13.10
2018-07-25T07:06:34.869Z,13.03
2018-07-25T07:09:04.050Z,15.40
2018-07-25T07:11:32.585Z,14.17
2018-07-25T07:14:01.125Z,15.00
2018-07-25T07:16:29.793Z,13.90
2018-07-25T07:18:58.433Z,15.80
2018-07-25T07:21:27.052Z,17.97
2018-07-25T07:24:02.211Z,22.30
2018-07-25T07:26:30.967Z,22.23
2018-07-25T07:28:59.514Z,24.40
2018-07-25T07:31:28.099Z,23.97
2018-07-25T07:33:56.665Z,23.37
2018-07-25T07:36:25.341Z,21.23
2018-07-25T07:38:54.018Z,19.20
2018-07-25T07:41:22.557Z,18.80
2018-07-25T07:43:51.125Z,18.33
2018-07-25T07:46:19.706Z,17.43
2018-07-25T07:48:48.274Z,15.73
2018-07-25T07:51:16.841Z,15.70
2018-07-25T07:53:45.379Z,15.33
2018-07-25T07:56:13.882Z,19.07
2018-07-25T07:58:42.497Z,19.50
2018-07-25T08:01:11.026Z,21.77
2018-07-25T08:03:39.675Z,18.30
2018-07-25T08:06:08.265Z,20.90
2018-07-25T08:08:36.865Z,21.43
2018-07-25T08:11:05.435Z,20.10
2018-07-25T08:13:34.081Z,19.77
2018-07-25T08:16:02.263Z,20.67
2018-07-25T08:18:30.904Z,20.57
2018-07-25T08:20:59.495Z,19.47
2018-07-25T08:23:28.110Z,20.17
2018-07-25T08:25:56.631Z,20.60
2018-07-25T08:28:25.284Z,20.97
2018-07-25T08:30:53.811Z,18.60
2018-07-25T08:33:22.430Z,20.47
2018-07-25T08:35:51.297Z,20.53
2018-07-25T08:38:37.614Z,22.53
2018-07-25T08:41:06.728Z,26.77
2018-07-25T08:43:36.744Z,23.97
2018-07-25T08:46:05.634Z,23.67
2018-07-25T08:48:34.929Z,21.60
2018-07-25T08:51:04.359Z,24.60
2018-07-25T08:53:33.773Z,27.77
2018-07-25T08:56:01.989Z,26.80
2018-07-25T08:58:30.523Z,28.93
2018-07-25T09:00:59.686Z,30.10
2018-07-25T09:03:28.234Z,28.67
2018-07-25T09:05:56.952Z,26.20
2018-07-25T09:08:26.248Z,25.90
2018-07-25T09:10:54.845Z,29.05
2018-07-25T09:13:23.473Z,27.93
2018-07-25T09:15:52.571Z,26.95
2018-07-25T09:18:21.167Z,29.20
2018-07-25T09:20:49.705Z,28.90
2018-07-25T09:23:18.271Z,31.23
2018-07-25T09:25:46.873Z,24.87
2018-07-25T09:28:15.453Z,30.15
2018-07-25T09:30:44.111Z,24.25
2018-07-25T09:33:12.636Z,29.12
2018-07-25T09:35:41.209Z,26.55
2018-07-25T09:38:09.839Z,25.60
2018-07-25T09:40:38.394Z,24.80
2018-07-25T09:43:07.042Z,28.52
2018-07-25T09:45:35.614Z,27.00
2018-07-25T09:48:04.225Z,27.75
2018-07-25T09:50:32.785Z,21.97
2018-07-25T09:53:01.404Z,23.30
2018-07-25T09:55:30.054Z,25.95
2018-07-25T09:57:58.649Z,24.90
2018-07-25T10:00:32.459Z,22.58
2018-07-25T10:03:02.004Z,19.92
2018-07-25T10:05:30.587Z,18.45
2018-07-25T10:07:59.200Z,16.42
2018-07-25T10:10:27.894Z,14.35
2018-07-25T10:12:56.540Z,18.55
2018-07-25T10:15:25.118Z,15.93
2018-07-25T10:17:53.749Z,12.07
2018-07-25T10:20:22.322Z,13.83
2018-07-25T10:22:51.038Z,11.83
2018-07-25T10:25:19.587Z,12.95
2018-07-25T10:27:48.202Z,15.08
2018-07-25T10:30:16.926Z,11.48
2018-07-25T10:32:45.482Z,11.40
2018-07-25T10:35:14.089Z,12.23
2018-07-25T10:37:42.701Z,12.43
2018-07-25T10:40:11.293Z,11.40
2018-07-25T10:42:39.931Z,11.33
2018-07-25T10:45:09.709Z,10.05
2018-07-25T10:47:38.879Z,10.40
2018-07-25T10:50:08.294Z,10.93
2018-07-25T10:52:36.904Z,10.90
2018-07-25T10:55:06.245Z,8.18
2018-07-25T10:57:35.575Z,10.15
2018-07-25T11:00:06.809Z,9.50
2018-07-25T11:02:35.633Z,9.10
2018-07-25T11:05:04.281Z,9.63
2018-07-25T11:07:32.806Z,9.77
2018-07-25T11:10:01.382Z,9.20
2018-07-25T11:12:29.973Z,8.73
2018-07-25T11:14:58.607Z,9.83
2018-07-25T11:17:27.305Z,10.00
2018-07-25T11:19:55.849Z,8.43
2018-07-25T11:22:24.408Z,7.20
2018-07-25T11:24:53.011Z,7.67
2018-07-25T11:27:21.663Z,6.80
2018-07-25T11:29:50.273Z,6.77
2018-07-25T11:32:18.862Z,6.53
2018-07-25T11:34:47.359Z,5.80
2018-07-25T11:37:15.905Z,7.00
2018-07-25T11:39:44.469Z,6.57
2018-07-25T11:42:13.119Z,5.73
2018-07-25T11:44:41.689Z,6.27
2018-07-25T11:47:10.665Z,6.10
2018-07-25T11:49:39.172Z,5.70
2018-07-25T11:52:07.765Z,5.63
2018-07-25T11:54:36.325Z,5.50
2018-07-25T11:57:05.070Z,5.07
2018-07-25T11:59:33.633Z,5.50
2018-07-25T12:02:02.193Z,5.73
2018-07-25T12:04:30.766Z,5.47
2018-07-25T12:09:27.991Z,5.53
2018-07-25T12:11:56.566Z,4.67
2018-07-25T12:14:25.132Z,4.77
2018-07-25T12:16:53.736Z,4.87
2018-07-25T12:19:22.338Z,4.97
2018-07-25T12:21:51.019Z,5.60
2018-07-25T12:24:19.546Z,4.90
2018-07-25T12:26:48.160Z,5.50
2018-07-25T12:29:16.790Z,4.83
2018-07-25T12:31:45.496Z,4.77
2018-07-25T12:34:14.075Z,4.77
2018-07-25T12:36:42.706Z,5.43
2018-07-25T12:39:11.280Z,5.37
2018-07-25T12:41:40.140Z,5.33
2018-07-25T12:44:09.220Z,6.10
2018-07-25T12:46:38.717Z,5.10
2018-07-25T12:49:08.298Z,6.17
2018-07-25T12:51:37.005Z,5.23
2018-07-25T12:54:06.383Z,5.83
2018-07-25T12:56:37.665Z,6.00
2018-07-25T12:59:06.282Z,5.40
2018-07-25T13:01:34.835Z,5.70
2018-07-25T13:04:05.444Z,6.00
2018-07-25T13:06:33.840Z,4.80
2018-07-25T13:09:03.639Z,5.57
2018-07-25T13:11:32.223Z,5.40
2018-07-25T13:14:00.793Z,5.27
2018-07-25T13:16:29.394Z,5.50
2018-07-25T13:18:57.906Z,5.83
2018-07-25T13:21:26.526Z,5.40
2018-07-25T13:23:55.177Z,5.40
2018-07-25T13:26:23.741Z,4.70
2018-07-25T13:28:52.381Z,4.97
2018-07-25T13:31:20.922Z,4.83
2018-07-25T13:33:49.435Z,5.07
2018-07-25T13:36:18.002Z,4.13
2018-07-25T13:38:46.553Z,4.53
2018-07-25T13:41:15.127Z,4.70
2018-07-25T13:43:43.655Z,4.80
2018-07-25T13:46:12.374Z,4.80
2018-07-25T13:48:40.848Z,4.90
2018-07-25T13:51:09.515Z,4.10
2018-07-25T13:53:38.077Z,5.07
2018-07-25T13:56:06.701Z,4.80
2018-07-25T13:58:35.265Z,5.43
2018-07-25T14:01:03.853Z,4.97
2018-07-25T14:03:32.685Z,5.20
2018-07-25T14:06:01.262Z,4.53
2018-07-25T14:08:29.814Z,4.70
2018-07-25T14:10:58.432Z,5.13
2018-07-25T14:13:27.046Z,4.83
2018-07-25T14:15:55.641Z,4.70
2018-07-25T14:18:24.202Z,4.90
2018-07-25T14:20:52.727Z,4.70
2018-07-25T14:23:21.311Z,4.00
2018-07-25T14:25:49.825Z,4.30
2018-07-25T14:28:18.393Z,4.47
2018-07-25T14:30:46.997Z,4.00
2018-07-25T14:33:15.549Z,4.43
2018-07-25T14:35:44.114Z,4.77
2018-07-25T14:38:12.682Z,3.80
2018-07-25T14:40:41.258Z,4.50
2018-07-25T14:43:09.966Z,4.43
2018-07-25T14:45:38.526Z,4.20
2018-07-25T14:48:07.166Z,4.37
2018-07-25T14:50:35.734Z,4.20
2018-07-25T14:53:04.373Z,4.37
2018-07-25T14:55:32.947Z,3.57
2018-07-25T14:58:01.530Z,4.30
2018-07-25T15:00:30.070Z,3.43
2018-07-25T15:02:58.685Z,3.93
2018-07-25T15:05:27.460Z,3.63
2018-07-25T15:07:56.073Z,3.83
2018-07-25T15:10:24.646Z,3.47
2018-07-25T15:12:57.765Z,3.27
2018-07-25T15:15:27.103Z,2.90
2018-07-25T15:17:56.141Z,3.30
2018-07-25T15:20:24.845Z,3.63
2018-07-25T15:22:53.417Z,3.40
2018-07-25T15:25:22.002Z,3.67
2018-07-25T15:27:50.635Z,3.67
2018-07-25T15:30:19.265Z,4.00
2018-07-25T15:32:47.885Z,3.90
2018-07-25T15:35:16.510Z,3.57
2018-07-25T15:37:45.110Z,3.30
2018-07-25T15:40:13.686Z,3.27
2018-07-25T15:42:42.285Z,3.50
2018-07-25T15:45:10.492Z,4.00
2018-07-25T15:47:39.253Z,3.40
2018-07-25T15:50:07.842Z,3.50
2018-07-25T15:52:36.492Z,3.27
2018-07-25T15:55:05.335Z,3.10
2018-07-25T15:57:34.124Z,4.07
2018-07-25T16:00:02.820Z,3.10
2018-07-25T16:02:31.600Z,3.70
2018-07-25T16:05:00.185Z,3.93
2018-07-25T16:07:28.922Z,3.77
2018-07-25T16:09:57.623Z,3.67
2018-07-25T16:12:26.368Z,4.93
2018-07-25T16:14:54.983Z,7.10
2018-07-25T16:17:23.618Z,4.07
2018-07-25T16:19:52.188Z,4.23
2018-07-25T16:22:20.773Z,3.87
2018-07-25T16:24:49.319Z,3.30
2018-07-25T16:27:17.913Z,3.67
2018-07-25T16:29:46.553Z,5.47
2018-07-25T16:32:15.197Z,4.00
2018-07-25T16:34:43.765Z,6.43
2018-07-25T16:37:12.420Z,5.53
2018-07-25T16:39:41.021Z,5.43
2018-07-25T16:42:09.566Z,7.30
2018-07-25T16:44:38.166Z,3.60
2018-07-25T16:47:06.769Z,3.37
2018-07-25T16:49:35.389Z,3.30
2018-07-25T16:52:04.021Z,3.93
2018-07-25T16:54:32.521Z,3.77
2018-07-25T16:57:01.038Z,4.10
2018-07-25T16:59:29.642Z,3.90
2018-07-25T17:01:58.327Z,3.93
2018-07-25T17:04:26.954Z,3.97
2018-07-25T17:06:55.742Z,3.80
2018-07-25T17:09:24.344Z,4.30
2018-07-25T17:11:52.913Z,4.43
2018-07-25T17:14:21.552Z,3.90
2018-07-25T17:16:50.168Z,3.57
2018-07-25T17:19:18.735Z,3.70
2018-07-25T17:21:47.289Z,4.00
2018-07-25T17:24:15.834Z,4.40
2018-07-25T17:26:44.350Z,4.30
2018-07-25T17:29:12.942Z,4.27
2018-07-25T17:31:41.485Z,4.70
2018-07-25T17:34:13.700Z,4.07
2018-07-25T17:36:42.340Z,3.70
2018-07-25T17:39:11.797Z,4.00
2018-07-25T17:41:41.096Z,4.37
2018-07-25T17:44:09.685Z,3.60
2018-07-25T17:46:38.364Z,3.97
2018-07-25T17:49:06.943Z,3.67
2018-07-25T17:51:35.524Z,3.80
2018-07-25T17:54:04.256Z,4.23
2018-07-25T17:56:32.842Z,4.10
2018-07-25T17:59:03.180Z,4.20
2018-07-25T18:01:31.773Z,5.53
2018-07-25T18:04:00.402Z,9.63
2018-07-25T18:06:28.950Z,8.00
2018-07-25T18:08:57.561Z,4.90
2018-07-25T18:11:26.229Z,4.97
2018-07-25T18:14:00.126Z,4.80
2018-07-25T18:16:28.723Z,4.27
2018-07-25T18:18:57.293Z,4.53
2018-07-25T18:21:25.917Z,4.47
2018-07-25T18:23:54.460Z,3.90
2018-07-25T18:26:27.070Z,4.60
2018-07-25T18:28:58.639Z,4.67
2018-07-25T18:31:28.772Z,4.60
2018-07-25T18:33:57.553Z,4.80
2018-07-25T18:36:26.279Z,4.47
2018-07-25T18:38:54.900Z,4.07
2018-07-25T18:41:23.216Z,3.70
2018-07-25T18:43:51.817Z,4.27
2018-07-25T18:46:20.521Z,4.07
2018-07-25T18:48:49.057Z,4.20
2018-07-25T18:51:19.519Z,4.47
2018-07-25T18:53:48.799Z,4.73
2018-07-25T18:56:17.505Z,4.17
2018-07-25T18:58:48.440Z,4.10
2018-07-25T19:01:17.707Z,5.23
2018-07-25T19:03:47.259Z,4.07
2018-07-25T19:06:16.665Z,4.23
2018-07-25T19:08:46.233Z,5.23
2018-07-25T19:11:16.276Z,4.80
2018-07-25T19:13:50.754Z,4.20
2018-07-25T19:16:19.783Z,4.53
2018-07-25T19:18:48.501Z,5.20
2018-07-25T19:21:19.387Z,4.40
2018-07-25T19:23:49.440Z,4.40
2018-07-25T19:26:18.665Z,5.87
2018-07-25T19:28:47.925Z,5.73
2018-07-25T19:31:17.656Z,5.27
2018-07-25T19:33:46.696Z,5.87
2018-07-25T19:36:16.011Z,5.20
2018-07-25T19:38:44.654Z,5.07
2018-07-25T19:41:14.790Z,4.93
2018-07-25T19:43:44.527Z,5.13
2018-07-25T19:46:13.138Z,5.10
2018-07-25T19:48:42.477Z,5.20
2018-07-25T19:51:12.695Z,5.00
2018-07-25T19:53:42.200Z,5.33
2018-07-25T19:56:11.980Z,5.03
2018-07-25T19:58:41.815Z,5.53
2018-07-25T20:01:13.037Z,5.23
2018-07-25T20:03:41.902Z,5.70
2018-07-25T20:06:18.063Z,4.63
2018-07-25T20:08:46.589Z,5.50
2018-07-25T20:11:15.155Z,5.03
2018-07-25T20:13:49.005Z,4.97
2018-07-25T20:16:17.896Z,5.30
2018-07-25T20:18:46.509Z,5.33
2018-07-25T20:21:15.073Z,5.60
2018-07-25T20:23:43.690Z,5.27
2018-07-25T20:26:12.241Z,5.30
2018-07-25T20:28:40.813Z,5.00
2018-07-25T20:31:09.404Z,5.17
2018-07-25T20:33:37.931Z,6.23
2018-07-25T20:36:06.525Z,5.97
2018-07-25T20:38:35.062Z,5.87
2018-07-25T20:41:04.277Z,5.53
2018-07-25T20:43:32.881Z,5.60
2018-07-25T20:46:01.540Z,5.87
2018-07-25T20:48:30.246Z,5.93
2018-07-25T20:50:58.878Z,5.20
2018-07-25T20:53:27.425Z,5.33
2018-07-25T20:55:56.006Z,5.70
2018-07-25T20:58:24.569Z,6.23
2018-07-25T21:00:53.122Z,5.50
2018-07-25T21:03:21.663Z,5.50
2018-07-25T21:05:50.198Z,4.93
2018-07-25T21:08:18.761Z,5.23
2018-07-25T21:10:47.250Z,6.10
2018-07-25T21:13:16.679Z,6.20
2018-07-25T21:15:45.205Z,6.40
2018-07-25T21:18:13.779Z,5.40
2018-07-25T21:20:42.916Z,5.90
2018-07-25T21:23:11.473Z,6.07
2018-07-25T21:25:40.075Z,5.50
2018-07-25T21:28:08.625Z,6.20
2018-07-25T21:30:37.146Z,6.10
2018-07-25T21:33:06.403Z,5.50
2018-07-25T21:35:34.898Z,6.10
2018-07-25T21:38:03.444Z,7.00
2018-07-25T21:40:31.909Z,6.17
2018-07-25T21:43:00.475Z,6.17
2018-07-25T21:45:29.997Z,7.40
2018-07-25T21:47:58.575Z,6.80
2018-07-25T21:50:27.198Z,6.73
2018-07-25T21:52:56.447Z,6.43
2018-07-25T21:55:25.113Z,6.50
2018-07-25T21:57:53.622Z,6.40
2018-07-25T22:00:22.260Z,6.83
2018-07-25T22:02:50.436Z,6.67
2018-07-25T22:05:19.008Z,9.63
2018-07-25T22:07:47.525Z,7.50
2018-07-25T22:10:16.161Z,7.10
2018-07-25T22:12:44.745Z,6.50
2018-07-25T22:15:12.967Z,5.90
2018-07-25T22:17:41.570Z,6.40
2018-07-25T22:20:12.000Z,6.47
2018-07-25T22:22:40.656Z,6.33
2018-07-25T22:25:09.926Z,6.40
2018-07-25T22:27:39.557Z,6.83
2018-07-25T22:30:08.784Z,6.20
2018-07-25T22:32:37.319Z,6.07
2018-07-25T22:35:06.085Z,6.63
2018-07-25T22:37:34.565Z,6.50
2018-07-25T22:40:03.102Z,6.70
2018-07-25T22:42:31.717Z,6.47
2018-07-25T22:45:00.306Z,7.03
2018-07-25T22:47:28.458Z,6.63
2018-07-25T22:50:03.498Z,6.87
2018-07-25T22:52:32.029Z,7.07
2018-07-25T22:55:00.623Z,6.00
2018-07-25T22:57:29.229Z,6.60
2018-07-25T22:59:57.734Z,7.03
2018-07-25T23:02:26.305Z,6.53
2018-07-25T23:04:54.833Z,7.30
2018-07-25T23:07:23.444Z,7.03
2018-07-25T23:09:52.053Z,7.20
2018-07-25T23:12:20.612Z,7.43
2018-07-25T23:14:49.102Z,7.80
2018-07-25T23:17:17.701Z,7.60
2018-07-25T23:19:46.274Z,6.90
2018-07-25T23:22:14.830Z,7.00
2018-07-25T23:24:43.322Z,7.03
2018-07-25T23:27:12.194Z,7.20
2018-07-25T23:29:40.775Z,7.60
2018-07-25T23:32:09.026Z,7.30
2018-07-25T23:34:37.534Z,7.47
2018-07-25T23:37:06.216Z,7.57
2018-07-25T23:39:34.688Z,7.13
2018-07-25T23:42:03.274Z,8.30
2018-07-25T23:44:31.796Z,7.50
2018-07-25T23:47:00.282Z,7.70
2018-07-25T23:49:28.833Z,7.00
2018-07-25T23:51:57.029Z,6.47
2018-07-25T23:54:25.549Z,7.23
2018-07-25T23:56:54.133Z,7.30
2018-07-25T23:59:22.672Z,6.83
